Time;durP1;ratioP1;P1;durP2;ratioP2;P2;SDS_P1;SDS_P2;PMS_P1;PMS_P2;Temp;Humidity;BMP_temperature;BMP_pressure;BME280_temperature;BME280_humidity;BME280_pressure;Samples;Min_cycle;Max_cycle;Signal;HPM_P1;HPM_P2
2021/01/26 00:01:20;;;;;;;41.53;20.25;;;;;;;;;;5072894;28;20036;-51
2021/01/26 00:03:47;;;;;;;40.72;19.98;;;;;;;;;;5080239;28;20080;-48
2021/01/26 00:06:13;;;;;;;40.67;18.85;;;;;;;;;;5067443;28;20481;-52
2021/01/26 00:08:39;;;;;;;34.35;17.75;;;;;;;;;;5083491;28;20534;-50
2021/01/26 00:11:06;;;;;;;36.38;17.88;;;;;;;;;;5077443;28;20120;-48
2021/01/26 00:13:33;;;;;;;36.50;19.00;;;;;;;;;;5086991;28;20023;-48
2021/01/26 00:16:00;;;;;;;35.67;18.65;;;;;;;;;;5083298;28;20027;-47
2021/01/26 00:18:26;;;;;;;37.28;19.38;;;;;;;;;;5080274;28;20042;-48
2021/01/26 00:20:52;;;;;;;39.88;19.95;;;;;;;;;;5079116;28;20130;-48
2021/01/26 00:23:18;;;;;;;40.88;19.23;;;;;;;;;;5086953;28;20039;-48
2021/01/26 00:25:44;;;;;;;38.92;18.50;;;;;;;;;;5067214;28;20009;-49
2021/01/26 00:28:11;;;;;;;36.05;17.70;;;;;;;;;;5073709;28;20024;-48
2021/01/26 00:30:38;;;;;;;33.90;18.30;;;;;;;;;;5075448;28;20552;-49
2021/01/26 00:33:08;;;;;;;34.08;18.60;;;;;;;;;;5080525;28;20089;-48
2021/01/26 00:35:35;;;;;;;32.55;18.05;;;;;;;;;;5070074;28;20029;-51
2021/01/26 00:38:01;;;;;;;36.97;20.13;;;;;;;;;;5086088;28;20066;-48
2021/01/26 00:40:27;;;;;;;36.65;18.88;;;;;;;;;;5082656;28;20036;-48
2021/01/26 00:42:53;;;;;;;34.13;18.73;;;;;;;;;;5086535;28;20195;-50
2021/01/26 00:45:21;;;;;;;42.78;19.88;;;;;;;;;;5067244;28;20119;-52
2021/01/26 00:47:47;;;;;;;36.17;18.15;;;;;;;;;;5076127;28;20031;-48
2021/01/26 00:50:13;;;;;;;35.60;18.48;;;;;;;;;;5086493;28;20028;-50
2021/01/26 00:52:39;;;;;;;41.50;20.25;;;;;;;;;;5072260;28;20087;-51
2021/01/26 00:55:06;;;;;;;30.83;18.98;;;;;;;;;;5069597;28;20039;-49
2021/01/26 00:57:32;;;;;;;37.03;19.25;;;;;;;;;;5083335;28;20032;-51
2021/01/26 00:59:58;;;;;;;35.85;19.05;;;;;;;;;;5085086;28;20050;-53
2021/01/26 01:02:24;;;;;;;35.30;19.02;;;;;;;;;;5068686;28;20032;-48
2021/01/26 01:04:50;;;;;;;37.75;19.00;;;;;;;;;;5069746;28;20044;-51
2021/01/26 01:07:17;;;;;;;37.38;19.80;;;;;;;;;;5078545;28;20036;-50
2021/01/26 01:09:43;;;;;;;37.53;19.58;;;;;;;;;;5082909;28;20107;-51
2021/01/26 01:12:09;;;;;;;37.83;18.70;;;;;;;;;;5088396;28;20036;-49
2021/01/26 01:14:35;;;;;;;40.67;20.35;;;;;;;;;;5073837;28;20123;-50
2021/01/26 01:17:01;;;;;;;36.72;19.90;;;;;;;;;;5088807;28;20032;-48
2021/01/26 01:19:27;;;;;;;41.03;20.70;;;;;;;;;;5086828;28;20122;-52
2021/01/26 01:21:53;;;;;;;34.30;19.95;;;;;;;;;;5086928;28;20114;-50
2021/01/26 01:24:19;;;;;;;40.20;19.17;;;;;;;;;;5089886;28;20448;-48
2021/01/26 01:26:45;;;;;;;36.38;20.00;;;;;;;;;;5071110;28;20459;-48
2021/01/26 01:29:13;;;;;;;40.58;19.27;;;;;;;;;;5076340;28;20062;-48
2021/01/26 01:31:39;;;;;;;37.88;20.58;;;;;;;;;;5074613;28;20388;-48
2021/01/26 01:34:08;;;;;;;37.80;21.73;;;;;;;;;;5082788;28;20047;-49
2021/01/26 01:36:35;;;;;;;44.47;21.20;;;;;;;;;;5083111;28;20059;-48
2021/01/26 01:39:01;;;;;;;39.45;21.38;;;;;;;;;;5095951;28;20042;-52
2021/01/26 01:41:31;;;;;;;42.70;19.98;;;;;;;;;;5084135;28;20111;-51
2021/01/26 01:43:57;;;;;;;36.47;19.35;;;;;;;;;;5089556;28;20127;-49
2021/01/26 01:46:23;;;;;;;44.05;20.58;;;;;;;;;;5077577;28;20035;-52
2021/01/26 01:48:49;;;;;;;40.90;21.02;;;;;;;;;;5089506;28;20028;-51
2021/01/26 01:51:20;;;;;;;44.22;22.08;;;;;;;;;;5078274;28;20032;-48
2021/01/26 01:53:57;;;;;;;41.90;20.55;;;;;;;;;;5083181;28;20085;-51
2021/01/26 01:56:39;;;;;;;38.13;19.60;;;;;;;;;;5089982;28;20397;-51
2021/01/26 01:59:10;;;;;;;37.60;19.85;;;;;;;;;;5086771;28;20046;-52
2021/01/26 02:01:37;;;;;;;41.03;19.38;;;;;;;;;;5068552;28;20036;-50
2021/01/26 02:04:07;;;;;;;37.00;20.02;;;;;;;;;;5086856;28;20040;-50
2021/01/26 02:06:35;;;;;;;35.47;19.25;;;;;;;;;;5089692;28;20026;-49
2021/01/26 02:09:09;;;;;;;38.60;19.80;;;;;;;;;;5085651;28;20036;-52
2021/01/26 02:11:35;;;;;;;38.28;17.80;;;;;;;;;;5068475;28;20023;-52
2021/01/26 02:14:01;;;;;;;37.03;20.02;;;;;;;;;;5075348;28;20085;-48
2021/01/26 02:16:32;;;;;;;36.03;17.45;;;;;;;;;;5082122;28;20035;-48
2021/01/26 02:19:15;;;;;;;35.72;19.25;;;;;;;;;;5068454;28;20028;-54
2021/01/26 02:21:41;;;;;;;37.17;20.15;;;;;;;;;;5083619;28;20042;-51
2021/01/26 02:24:24;;;;;;;38.72;19.23;;;;;;;;;;5085289;28;20032;-52
2021/01/26 02:27:08;;;;;;;36.83;19.45;;;;;;;;;;5074070;28;20043;-51
2021/01/26 02:30:00;;;;;;;35.22;18.00;;;;;;;;;;5080249;28;20527;-52
2021/01/26 02:32:40;;;;;;;38.65;18.52;;;;;;;;;;5075285;28;20084;-51
2021/01/26 02:35:18;;;;;;;43.03;18.90;;;;;;;;;;5084838;28;20028;-51
2021/01/26 02:38:04;;;;;;;42.30;19.40;;;;;;;;;;5079537;28;20090;-50
2021/01/26 02:40:32;;;;;;;38.65;19.67;;;;;;;;;;5082908;28;20104;-48
2021/01/26 02:43:04;;;;;;;34.55;17.17;;;;;;;;;;5081481;28;20032;-50
2021/01/26 02:45:41;;;;;;;37.10;18.45;;;;;;;;;;5076096;28;20373;-50
2021/01/26 02:48:31;;;;;;;40.00;18.65;;;;;;;;;;5082709;28;20033;-49
2021/01/26 02:51:03;;;;;;;32.08;17.52;;;;;;;;;;5080760;28;20032;-50
2021/01/26 02:53:48;;;;;;;34.80;17.23;;;;;;;;;;5081281;28;20437;-49
2021/01/26 02:56:14;;;;;;;34.35;17.83;;;;;;;;;;5072006;28;20086;-50
2021/01/26 02:58:40;;;;;;;35.72;18.23;;;;;;;;;;5088093;28;20375;-53
2021/01/26 03:01:06;;;;;;;37.67;18.48;;;;;;;;;;5076222;28;20024;-50
2021/01/26 03:03:36;;;;;;;37.17;18.30;;;;;;;;;;5085435;28;20519;-48
2021/01/26 03:06:05;;;;;;;33.88;18.25;;;;;;;;;;5079072;28;20029;-48
2021/01/26 03:08:47;;;;;;;30.20;17.02;;;;;;;;;;5096383;28;20032;-49
2021/01/26 03:11:52;;;;;;;38.42;17.60;;;;;;;;;;5080303;28;20048;-49
2021/01/26 03:14:18;;;;;;;39.63;18.25;;;;;;;;;;5044605;28;20112;-50
2021/01/26 03:16:45;;;;;;;34.08;18.38;;;;;;;;;;5041543;28;20678;-49
2021/01/26 03:19:15;;;;;;;34.47;17.85;;;;;;;;;;5048586;28;20052;-49
2021/01/26 03:21:43;;;;;;;32.47;17.85;;;;;;;;;;5086818;28;20458;-50
2021/01/26 03:24:12;;;;;;;40.22;18.38;;;;;;;;;;5084640;28;20547;-50
2021/01/26 03:26:40;;;;;;;36.35;18.25;;;;;;;;;;5085211;28;20031;-49
2021/01/26 03:29:07;;;;;;;32.83;17.35;;;;;;;;;;5078228;28;20031;-49
2021/01/26 03:31:36;;;;;;;32.55;18.40;;;;;;;;;;5087230;28;20471;-53
2021/01/26 03:34:02;;;;;;;36.72;18.60;;;;;;;;;;5096829;28;20430;-51
2021/01/26 03:36:28;;;;;;;35.15;18.55;;;;;;;;;;5085294;28;20061;-50
2021/01/26 03:38:54;;;;;;;34.53;18.67;;;;;;;;;;5087218;28;20032;-48
2021/01/26 03:41:21;;;;;;;34.70;17.52;;;;;;;;;;5086105;28;20032;-48
2021/01/26 03:43:50;;;;;;;35.08;18.65;;;;;;;;;;5100486;28;20034;-48
2021/01/26 03:46:26;;;;;;;34.65;18.70;;;;;;;;;;5083674;28;20484;-48
2021/01/26 03:49:04;;;;;;;37.95;19.17;;;;;;;;;;5069508;28;20086;-48
2021/01/26 03:51:35;;;;;;;38.92;19.20;;;;;;;;;;5077215;28;20024;-49
2021/01/26 03:54:20;;;;;;;35.75;18.30;;;;;;;;;;5087044;28;20046;-49
2021/01/26 03:57:05;;;;;;;33.08;17.92;;;;;;;;;;5072943;28;20731;-49
2021/01/26 03:59:40;;;;;;;36.10;19.20;;;;;;;;;;5084386;28;20390;-48
2021/01/26 04:02:14;;;;;;;34.72;19.73;;;;;;;;;;5080621;28;20024;-48
2021/01/26 04:04:46;;;;;;;36.38;18.70;;;;;;;;;;5072714;28;20051;-49
2021/01/26 04:07:17;;;;;;;38.95;18.48;;;;;;;;;;5086173;28;20031;-48
2021/01/26 04:09:47;;;;;;;35.42;18.73;;;;;;;;;;5074129;28;20040;-51
2021/01/26 04:12:15;;;;;;;37.50;19.38;;;;;;;;;;5076461;28;20476;-49
2021/01/26 04:14:47;;;;;;;39.50;20.33;;;;;;;;;;5086336;28;20101;-48
2021/01/26 04:17:12;;;;;;;37.90;18.98;;;;;;;;;;5087492;28;20028;-51
2021/01/26 04:19:41;;;;;;;36.65;19.88;;;;;;;;;;5074093;28;20051;-50
2021/01/26 04:22:08;;;;;;;40.63;20.25;;;;;;;;;;5079314;28;20036;-51
2021/01/26 04:24:35;;;;;;;36.78;19.95;;;;;;;;;;5081767;28;20131;-51
2021/01/26 04:27:01;;;;;;;35.28;19.17;;;;;;;;;;5076050;28;20028;-48
2021/01/26 04:29:27;;;;;;;32.63;18.27;;;;;;;;;;5075987;28;20041;-50
2021/01/26 04:31:54;;;;;;;33.65;19.38;;;;;;;;;;5068694;28;20071;-50
2021/01/26 04:34:20;;;;;;;34.22;18.83;;;;;;;;;;5081674;28;20123;-48
2021/01/26 04:36:46;;;;;;;36.65;19.38;;;;;;;;;;5075131;28;20032;-49
2021/01/26 04:39:15;;;;;;;35.58;19.00;;;;;;;;;;5082751;28;20388;-52
2021/01/26 04:41:50;;;;;;;38.03;19.38;;;;;;;;;;5081038;28;20042;-48
2021/01/26 04:44:19;;;;;;;37.33;20.33;;;;;;;;;;5073436;28;20391;-51
2021/01/26 04:47:03;;;;;;;36.22;19.70;;;;;;;;;;5085157;28;20043;-50
2021/01/26 04:49:39;;;;;;;42.28;20.73;;;;;;;;;;5090796;28;20094;-49
2021/01/26 04:52:12;;;;;;;38.85;19.63;;;;;;;;;;5073695;28;20028;-48
2021/01/26 04:54:47;;;;;;;41.67;19.88;;;;;;;;;;5078948;28;20437;-48
2021/01/26 04:57:22;;;;;;;39.15;20.20;;;;;;;;;;5073879;28;20383;-50
2021/01/26 05:00:07;;;;;;;37.28;18.42;;;;;;;;;;5090126;28;20039;-48
2021/01/26 05:02:50;;;;;;;34.28;18.80;;;;;;;;;;5075325;28;20494;-48
2021/01/26 05:05:19;;;;;;;34.25;18.30;;;;;;;;;;5084026;28;20503;-50
2021/01/26 05:07:48;;;;;;;41.78;19.95;;;;;;;;;;5080886;28;20032;-48
2021/01/26 05:10:22;;;;;;;36.35;19.08;;;;;;;;;;5090747;28;20078;-51
2021/01/26 05:12:49;;;;;;;38.53;20.27;;;;;;;;;;5087350;28;20029;-48
2021/01/26 05:15:20;;;;;;;40.38;20.80;;;;;;;;;;5073985;28;20145;-48
2021/01/26 05:17:58;;;;;;;35.78;19.42;;;;;;;;;;5074576;28;20036;-49
2021/01/26 05:20:26;;;;;;;34.42;19.10;;;;;;;;;;5078220;28;20063;-50
2021/01/26 05:22:54;;;;;;;38.60;20.10;;;;;;;;;;5076281;28;20029;-49
2021/01/26 05:25:22;;;;;;;39.72;19.75;;;;;;;;;;5084575;28;20028;-48
2021/01/26 05:27:48;;;;;;;40.50;20.02;;;;;;;;;;5082632;28;20028;-49
2021/01/26 05:30:26;;;;;;;44.05;20.50;;;;;;;;;;5073006;28;20036;-49
2021/01/26 05:32:53;;;;;;;38.50;19.95;;;;;;;;;;5074807;28;20555;-49
2021/01/26 05:35:19;;;;;;;38.03;20.10;;;;;;;;;;5090238;28;20038;-50
2021/01/26 05:37:46;;;;;;;35.83;19.75;;;;;;;;;;5088427;28;20032;-51
2021/01/26 05:40:27;;;;;;;33.58;18.95;;;;;;;;;;5080276;28;20036;-48
2021/01/26 05:42:55;;;;;;;42.28;19.58;;;;;;;;;;5071568;28;20064;-49
2021/01/26 05:45:24;;;;;;;36.10;18.60;;;;;;;;;;5077292;28;20115;-52
2021/01/26 05:47:59;;;;;;;38.95;18.50;;;;;;;;;;5089281;28;20022;-50
2021/01/26 05:50:26;;;;;;;36.80;18.58;;;;;;;;;;5089431;28;20349;-49
2021/01/26 05:52:53;;;;;;;33.05;17.55;;;;;;;;;;5078985;28;20389;-48
2021/01/26 05:55:25;;;;;;;35.13;18.65;;;;;;;;;;5084293;28;20402;-48
2021/01/26 05:57:51;;;;;;;32.05;16.13;;;;;;;;;;5083708;28;20032;-50
2021/01/26 06:00:17;;;;;;;36.65;18.70;;;;;;;;;;5077757;28;20030;-52
2021/01/26 06:02:43;;;;;;;33.38;17.10;;;;;;;;;;5085387;28;20036;-52
2021/01/26 06:05:16;;;;;;;36.60;18.42;;;;;;;;;;5086989;28;20044;-48
2021/01/26 06:07:42;;;;;;;34.10;18.95;;;;;;;;;;5089867;28;20021;-51
2021/01/26 06:10:18;;;;;;;35.58;18.35;;;;;;;;;;5082771;28;20035;-51
2021/01/26 06:12:51;;;;;;;34.30;18.17;;;;;;;;;;5082151;28;20025;-48
2021/01/26 06:15:20;;;;;;;32.88;17.30;;;;;;;;;;5089411;28;20051;-48
2021/01/26 06:17:46;;;;;;;37.78;18.90;;;;;;;;;;5100178;28;20363;-53
2021/01/26 06:20:19;;;;;;;30.73;17.48;;;;;;;;;;5078159;28;20036;-54
2021/01/26 06:22:46;;;;;;;33.70;17.15;;;;;;;;;;5086998;28;20032;-53
2021/01/26 06:25:19;;;;;;;36.72;18.45;;;;;;;;;;5081696;28;20069;-48
2021/01/26 06:27:51;;;;;;;34.42;18.17;;;;;;;;;;5089998;28;20024;-52
2021/01/26 06:30:20;;;;;;;36.33;17.92;;;;;;;;;;5073391;28;20108;-49
2021/01/26 06:33:05;;;;;;;33.00;17.98;;;;;;;;;;5068301;28;20024;-51
2021/01/26 06:35:37;;;;;;;32.70;16.90;;;;;;;;;;5078846;28;20035;-49
2021/01/26 06:38:06;;;;;;;31.27;17.50;;;;;;;;;;5090717;28;20036;-51
2021/01/26 06:40:40;;;;;;;33.60;16.33;;;;;;;;;;5079694;28;20059;-54
2021/01/26 06:43:09;;;;;;;35.63;18.30;;;;;;;;;;5075100;28;20093;-51
2021/01/26 06:45:51;;;;;;;31.73;17.05;;;;;;;;;;5074101;28;20376;-51
2021/01/26 06:48:17;;;;;;;30.85;16.17;;;;;;;;;;5073788;28;20038;-49
2021/01/26 06:51:03;;;;;;;33.85;16.80;;;;;;;;;;5076418;28;20031;-51
2021/01/26 06:53:41;;;;;;;29.45;15.55;;;;;;;;;;5095644;28;20081;-52
2021/01/26 06:56:11;;;;;;;31.42;16.38;;;;;;;;;;5068748;28;20484;-49
2021/01/26 06:59:06;;;;;;;27.58;14.73;;;;;;;;;;5080816;28;20032;-51
2021/01/26 07:01:42;;;;;;;27.05;15.52;;;;;;;;;;5063051;28;20147;-48
2021/01/26 07:04:19;;;;;;;27.90;14.57;;;;;;;;;;5083245;28;20108;-50
2021/01/26 07:06:53;;;;;;;32.90;16.52;;;;;;;;;;5084461;28;20031;-48
2021/01/26 07:09:23;;;;;;;29.08;15.70;;;;;;;;;;5080608;28;20028;-48
2021/01/26 07:12:07;;;;;;;32.10;17.15;;;;;;;;;;5089689;28;20122;-51
2021/01/26 07:14:46;;;;;;;30.25;16.60;;;;;;;;;;5077634;28;20406;-52
2021/01/26 07:17:19;;;;;;;26.35;15.43;;;;;;;;;;5088224;28;20066;-52
2021/01/26 07:19:57;;;;;;;30.67;16.08;;;;;;;;;;5088678;28;20036;-52
2021/01/26 07:22:37;;;;;;;24.85;14.85;;;;;;;;;;5091453;28;20028;-48
2021/01/26 07:25:03;;;;;;;26.05;15.18;;;;;;;;;;5073740;28;20040;-48
2021/01/26 07:27:47;;;;;;;27.10;15.57;;;;;;;;;;5088529;28;20741;-49
2021/01/26 07:30:31;;;;;;;30.60;15.95;;;;;;;;;;5078521;28;20042;-51
2021/01/26 07:33:06;;;;;;;26.42;14.55;;;;;;;;;;5085336;28;20619;-51
2021/01/26 07:35:38;;;;;;;29.30;15.85;;;;;;;;;;5074137;28;20033;-50
2021/01/26 07:38:16;;;;;;;30.75;15.60;;;;;;;;;;5071538;28;20849;-48
2021/01/26 07:40:48;;;;;;;30.27;15.20;;;;;;;;;;5072587;28;20555;-50
2021/01/26 07:43:33;;;;;;;27.90;15.35;;;;;;;;;;5074049;28;20328;-49
2021/01/26 07:46:02;;;;;;;25.67;15.55;;;;;;;;;;5068854;28;20050;-52
2021/01/26 07:48:55;;;;;;;29.73;16.42;;;;;;;;;;5076608;28;20036;-50
2021/01/26 07:51:23;;;;;;;28.63;15.43;;;;;;;;;;5071367;28;20044;-52
2021/01/26 07:53:56;;;;;;;30.80;16.20;;;;;;;;;;5065513;28;20521;-52
2021/01/26 07:56:24;;;;;;;27.50;15.77;;;;;;;;;;5087544;28;20476;-52
2021/01/26 07:58:51;;;;;;;31.48;16.10;;;;;;;;;;5075291;28;20804;-52
2021/01/26 08:01:19;;;;;;;32.40;16.58;;;;;;;;;;5070569;28;20496;-51
2021/01/26 08:03:46;;;;;;;31.58;16.48;;;;;;;;;;5073882;28;20072;-49
2021/01/26 08:06:42;;;;;;;30.00;16.42;;;;;;;;;;5071583;28;20017;-49
2021/01/26 08:09:11;;;;;;;28.67;16.38;;;;;;;;;;5070556;28;20539;-51
2021/01/26 08:11:48;;;;;;;31.60;16.08;;;;;;;;;;5073455;28;20448;-52
2021/01/26 08:14:15;;;;;;;27.50;16.48;;;;;;;;;;5082831;28;20028;-49
2021/01/26 08:16:44;;;;;;;32.42;16.25;;;;;;;;;;5080894;28;20731;-50
2021/01/26 08:19:22;;;;;;;31.20;16.58;;;;;;;;;;5076555;28;20047;-50
2021/01/26 08:21:48;;;;;;;30.40;16.90;;;;;;;;;;5071340;28;20089;-49
2021/01/26 08:24:28;;;;;;;31.95;16.95;;;;;;;;;;5073289;28;20036;-49
2021/01/26 08:26:55;;;;;;;32.85;16.52;;;;;;;;;;5075768;28;20024;-52
2021/01/26 08:29:39;;;;;;;31.88;16.63;;;;;;;;;;5078367;28;20043;-53
2021/01/26 08:32:24;;;;;;;31.85;17.33;;;;;;;;;;5082228;28;20024;-49
2021/01/26 08:35:05;;;;;;;28.48;16.85;;;;;;;;;;5066752;28;20104;-50
2021/01/26 08:37:44;;;;;;;29.98;16.88;;;;;;;;;;5071805;28;20050;-49
2021/01/26 08:40:12;;;;;;;30.13;17.33;;;;;;;;;;5067639;28;20062;-52
2021/01/26 08:42:41;;;;;;;32.15;17.23;;;;;;;;;;5081023;28;20116;-50
2021/01/26 08:45:18;;;;;;;29.75;17.67;;;;;;;;;;5076540;28;20036;-49
2021/01/26 08:47:46;;;;;;;32.45;18.23;;;;;;;;;;5081094;28;20059;-50
2021/01/26 08:50:23;;;;;;;31.27;17.35;;;;;;;;;;5067616;28;20111;-52
2021/01/26 08:52:50;;;;;;;32.92;18.15;;;;;;;;;;5081484;28;20033;-50
2021/01/26 08:55:32;;;;;;;32.58;18.13;;;;;;;;;;5086705;28;20032;-48
2021/01/26 08:57:58;;;;;;;35.95;19.08;;;;;;;;;;5085252;28;20028;-51
2021/01/26 09:00:27;;;;;;;32.28;17.55;;;;;;;;;;5085044;28;20456;-48
2021/01/26 09:02:53;;;;;;;32.95;18.45;;;;;;;;;;5068274;28;20098;-48
2021/01/26 09:05:40;;;;;;;34.47;18.30;;;;;;;;;;5071783;28;20056;-51
2021/01/26 09:08:06;;;;;;;35.83;19.10;;;;;;;;;;5059939;28;20044;-49
2021/01/26 09:10:40;;;;;;;31.88;18.48;;;;;;;;;;5067598;28;20032;-48
2021/01/26 09:13:09;;;;;;;33.45;17.63;;;;;;;;;;5082553;28;20024;-48
2021/01/26 09:15:38;;;;;;;33.40;17.90;;;;;;;;;;5076097;28;20532;-48
2021/01/26 09:18:04;;;;;;;28.85;16.90;;;;;;;;;;5077413;28;20051;-51
2021/01/26 09:20:32;;;;;;;34.22;19.33;;;;;;;;;;5084857;28;20032;-48
2021/01/26 09:23:00;;;;;;;30.15;17.15;;;;;;;;;;5080689;28;20487;-51
2021/01/26 09:25:29;;;;;;;31.88;17.05;;;;;;;;;;5079865;28;20037;-48
2021/01/26 09:28:00;;;;;;;30.80;17.40;;;;;;;;;;5084740;28;20035;-53
2021/01/26 09:30:27;;;;;;;32.58;16.67;;;;;;;;;;5088462;28;20028;-48
2021/01/26 09:33:02;;;;;;;32.22;18.27;;;;;;;;;;5082315;28;20028;-52
2021/01/26 09:35:33;;;;;;;30.98;18.00;;;;;;;;;;5080242;28;20028;-47
2021/01/26 09:38:00;;;;;;;29.92;17.30;;;;;;;;;;5087665;28;20388;-48
2021/01/26 09:40:26;;;;;;;29.08;16.52;;;;;;;;;;5078908;28;20077;-49
2021/01/26 09:43:12;;;;;;;28.17;15.45;;;;;;;;;;5078473;28;20020;-48
2021/01/26 09:45:38;;;;;;;25.95;14.68;;;;;;;;;;5073780;28;20381;-50
2021/01/26 09:48:05;;;;;;;22.17;13.90;;;;;;;;;;5087548;28;20031;-47
2021/01/26 09:50:31;;;;;;;22.63;13.55;;;;;;;;;;5084400;28;20036;-50
2021/01/26 09:53:03;;;;;;;19.38;11.88;;;;;;;;;;5079478;28;20024;-51
2021/01/26 09:55:29;;;;;;;25.45;13.77;;;;;;;;;;5076780;28;20020;-48
2021/01/26 09:57:56;;;;;;;21.13;12.07;;;;;;;;;;5072835;28;20040;-51
2021/01/26 10:00:23;;;;;;;22.95;13.35;;;;;;;;;;5082284;28;20024;-48
2021/01/26 10:02:53;;;;;;;22.35;13.90;;;;;;;;;;5068328;28;20048;-48
2021/01/26 10:05:20;;;;;;;23.30;13.80;;;;;;;;;;5075513;28;20047;-50
2021/01/26 10:08:03;;;;;;;24.23;14.48;;;;;;;;;;5075478;28;20174;-49
2021/01/26 10:10:30;;;;;;;24.75;14.73;;;;;;;;;;5078466;28;20032;-49
2021/01/26 10:12:55;;;;;;;25.70;14.70;;;;;;;;;;5072159;28;20577;-51
2021/01/26 10:15:28;;;;;;;25.17;14.45;;;;;;;;;;5071947;28;20037;-48
2021/01/26 10:18:00;;;;;;;28.00;15.02;;;;;;;;;;5080139;28;20089;-48
2021/01/26 10:20:28;;;;;;;25.95;15.07;;;;;;;;;;5076384;28;20036;-47
2021/01/26 10:23:07;;;;;;;27.67;15.15;;;;;;;;;;5078596;28;20042;-48
2021/01/26 10:25:34;;;;;;;27.38;14.10;;;;;;;;;;5080417;28;20033;-48
2021/01/26 10:28:12;;;;;;;27.02;14.35;;;;;;;;;;5073525;28;20032;-50
2021/01/26 10:30:43;;;;;;;26.52;14.20;;;;;;;;;;5074288;28;20036;-48
2021/01/26 10:33:09;;;;;;;24.50;13.90;;;;;;;;;;5084005;28;20025;-49
2021/01/26 10:35:36;;;;;;;25.05;14.77;;;;;;;;;;5074407;28;20036;-50
2021/01/26 10:38:21;;;;;;;28.55;15.80;;;;;;;;;;5076222;28;20028;-48
2021/01/26 10:40:47;;;;;;;28.48;15.32;;;;;;;;;;5072896;28;20150;-48
2021/01/26 10:43:21;;;;;;;27.60;15.23;;;;;;;;;;5086539;28;20040;-48
2021/01/26 10:45:48;;;;;;;25.35;15.38;;;;;;;;;;5069707;28;20410;-48
2021/01/26 10:48:23;;;;;;;27.42;15.18;;;;;;;;;;5076165;28;20043;-50
2021/01/26 10:50:50;;;;;;;28.35;16.25;;;;;;;;;;5082857;28;20463;-48
2021/01/26 10:53:34;;;;;;;25.40;15.50;;;;;;;;;;5083582;28;20042;-50
2021/01/26 10:56:01;;;;;;;28.38;15.88;;;;;;;;;;5078492;28;20035;-49
2021/01/26 10:58:27;;;;;;;25.38;15.20;;;;;;;;;;5076816;28;20069;-52
2021/01/26 11:00:53;;;;;;;27.13;14.63;;;;;;;;;;5076474;28;20024;-51
2021/01/26 11:03:19;;;;;;;27.08;14.27;;;;;;;;;;5083449;28;20484;-50
2021/01/26 11:05:45;;;;;;;23.80;14.35;;;;;;;;;;5079511;28;20548;-48
2021/01/26 11:08:11;;;;;;;20.75;13.23;;;;;;;;;;5076552;28;20036;-50
2021/01/26 11:10:37;;;;;;;28.38;15.15;;;;;;;;;;5082698;28;20097;-49
2021/01/26 11:13:04;;;;;;;24.95;14.77;;;;;;;;;;5079729;28;20452;-48
2021/01/26 11:15:30;;;;;;;27.33;15.48;;;;;;;;;;5074234;28;20024;-50
2021/01/26 11:17:56;;;;;;;24.90;15.10;;;;;;;;;;5078973;28;20032;-48
2021/01/26 11:20:22;;;;;;;22.10;14.30;;;;;;;;;;5079129;28;21021;-51
2021/01/26 11:22:48;;;;;;;24.48;13.77;;;;;;;;;;5078853;28;20119;-50
2021/01/26 11:25:14;;;;;;;24.42;13.70;;;;;;;;;;5074804;28;20024;-51
2021/01/26 11:27:40;;;;;;;22.50;12.70;;;;;;;;;;5079282;28;20028;-49
2021/01/26 11:30:07;;;;;;;20.88;13.00;;;;;;;;;;5065974;28;20023;-51
2021/01/26 11:32:34;;;;;;;21.38;12.77;;;;;;;;;;5072988;28;20043;-48
2021/01/26 11:34:59;;;;;;;21.15;12.93;;;;;;;;;;5080705;28;20028;-50
2021/01/26 11:37:25;;;;;;;22.67;14.32;;;;;;;;;;5065822;28;20063;-50
2021/01/26 11:39:52;;;;;;;22.25;13.25;;;;;;;;;;5066112;28;20028;-51
2021/01/26 11:42:18;;;;;;;19.70;13.30;;;;;;;;;;5062140;28;20031;-50
2021/01/26 11:44:44;;;;;;;21.50;12.80;;;;;;;;;;5070980;28;20028;-51
2021/01/26 11:47:10;;;;;;;22.05;14.63;;;;;;;;;;5067186;28;20021;-49
2021/01/26 11:49:36;;;;;;;24.55;14.52;;;;;;;;;;5081984;28;20153;-51
2021/01/26 11:52:02;;;;;;;25.95;14.48;;;;;;;;;;5080868;28;20036;-51
2021/01/26 11:54:28;;;;;;;25.35;14.60;;;;;;;;;;5070670;28;20050;-49
2021/01/26 11:56:54;;;;;;;23.65;14.30;;;;;;;;;;5065421;28;20523;-50
2021/01/26 11:59:20;;;;;;;24.15;15.38;;;;;;;;;;5068662;28;20480;-48
2021/01/26 12:01:46;;;;;;;27.85;15.48;;;;;;;;;;5064667;28;20646;-48
2021/01/26 12:04:11;;;;;;;27.10;15.43;;;;;;;;;;5075756;28;20056;-47
2021/01/26 12:06:37;;;;;;;25.33;14.52;;;;;;;;;;5074346;28;20023;-49
2021/01/26 12:09:04;;;;;;;24.23;14.52;;;;;;;;;;5080312;28;20020;-49
2021/01/26 12:11:30;;;;;;;25.85;14.65;;;;;;;;;;5074520;28;20035;-51
2021/01/26 12:13:56;;;;;;;25.80;15.52;;;;;;;;;;5074964;28;20150;-51
2021/01/26 12:16:22;;;;;;;25.90;13.98;;;;;;;;;;5070635;28;20589;-53
2021/01/26 12:18:48;;;;;;;25.98;15.32;;;;;;;;;;5075953;28;20024;-49
2021/01/26 12:21:14;;;;;;;23.67;14.98;;;;;;;;;;5074231;28;20677;-48
2021/01/26 12:23:43;;;;;;;21.02;13.77;;;;;;;;;;5070743;28;20036;-51
2021/01/26 12:26:09;;;;;;;18.83;11.88;;;;;;;;;;5086535;28;20028;-47
2021/01/26 12:28:35;;;;;;;16.48;11.15;;;;;;;;;;5067275;28;20044;-49
2021/01/26 12:31:00;;;;;;;23.23;12.73;;;;;;;;;;5083502;28;20024;-52
2021/01/26 12:33:26;;;;;;;18.27;11.30;;;;;;;;;;5083496;28;20078;-51
2021/01/26 12:35:52;;;;;;;19.45;12.30;;;;;;;;;;5077378;28;20020;-48
2021/01/26 12:38:18;;;;;;;19.35;12.13;;;;;;;;;;5077683;28;20108;-48
2021/01/26 12:40:44;;;;;;;17.80;12.07;;;;;;;;;;5077702;28;20043;-50
2021/01/26 12:43:11;;;;;;;20.45;13.23;;;;;;;;;;5082188;28;20035;-49
2021/01/26 12:45:37;;;;;;;21.02;12.95;;;;;;;;;;5078081;28;20526;-48
2021/01/26 12:48:03;;;;;;;24.83;13.57;;;;;;;;;;5079279;28;20456;-53
2021/01/26 12:50:30;;;;;;;20.70;13.02;;;;;;;;;;5080624;28;20078;-49
2021/01/26 12:52:57;;;;;;;23.92;13.40;;;;;;;;;;5080328;28;20031;-49
2021/01/26 12:55:22;;;;;;;22.80;12.70;;;;;;;;;;5088099;28;20028;-48
2021/01/26 12:57:48;;;;;;;20.75;13.10;;;;;;;;;;5074957;28;20091;-47
2021/01/26 13:00:16;;;;;;;21.92;12.85;;;;;;;;;;5070253;28;20043;-49
2021/01/26 13:02:42;;;;;;;22.02;12.93;;;;;;;;;;5085464;28;20044;-50
2021/01/26 13:05:09;;;;;;;19.88;12.13;;;;;;;;;;5088990;28;20553;-48
2021/01/26 13:07:35;;;;;;;23.52;13.48;;;;;;;;;;5082251;28;20405;-49
2021/01/26 13:10:01;;;;;;;23.58;13.20;;;;;;;;;;5087260;28;20042;-51
2021/01/26 13:12:27;;;;;;;20.27;12.18;;;;;;;;;;5081721;28;20028;-47
2021/01/26 13:14:53;;;;;;;21.25;11.77;;;;;;;;;;5085022;28;20487;-50
2021/01/26 13:17:19;;;;;;;20.77;12.25;;;;;;;;;;5081780;28;20119;-50
2021/01/26 13:19:45;;;;;;;21.77;12.20;;;;;;;;;;5079056;28;20351;-46
2021/01/26 13:22:11;;;;;;;20.60;12.30;;;;;;;;;;5075329;28;20025;-53
2021/01/26 13:24:37;;;;;;;20.35;11.55;;;;;;;;;;5077573;28;20036;-51
2021/01/26 13:27:03;;;;;;;18.65;11.93;;;;;;;;;;5079214;28;20024;-48
2021/01/26 13:29:29;;;;;;;19.45;12.13;;;;;;;;;;5074963;28;20135;-52
2021/01/26 13:31:55;;;;;;;22.80;12.15;;;;;;;;;;5086896;28;20085;-49
2021/01/26 13:34:21;;;;;;;22.95;11.75;;;;;;;;;;5085106;28;20036;-52
2021/01/26 13:36:47;;;;;;;21.55;12.43;;;;;;;;;;5071506;28;20035;-48
2021/01/26 13:39:14;;;;;;;22.02;12.23;;;;;;;;;;5075761;28;20040;-47
2021/01/26 13:41:45;;;;;;;18.90;10.95;;;;;;;;;;5076388;28;20380;-49
2021/01/26 13:44:11;;;;;;;19.13;11.73;;;;;;;;;;5075447;28;20036;-48
2021/01/26 13:46:37;;;;;;;20.52;11.98;;;;;;;;;;5072932;28;20033;-47
2021/01/26 13:49:04;;;;;;;18.48;10.77;;;;;;;;;;5069275;28;20024;-49
2021/01/26 13:51:30;;;;;;;16.45;10.35;;;;;;;;;;5085297;28;20042;-47
2021/01/26 13:53:56;;;;;;;16.00;9.95;;;;;;;;;;5084316;28;20013;-52
2021/01/26 13:56:22;;;;;;;16.95;9.88;;;;;;;;;;5082831;28;20028;-49
2021/01/26 13:58:48;;;;;;;18.20;10.50;;;;;;;;;;5079080;28;20025;-53
2021/01/26 14:01:14;;;;;;;20.65;10.27;;;;;;;;;;5078107;28;20031;-48
2021/01/26 14:03:40;;;;;;;15.93;10.23;;;;;;;;;;5076146;28;20210;-48
2021/01/26 14:06:06;;;;;;;18.77;9.38;;;;;;;;;;5078331;28;20028;-50
2021/01/26 14:08:32;;;;;;;21.63;10.00;;;;;;;;;;5072254;28;20028;-47
2021/01/26 14:10:58;;;;;;;18.90;10.05;;;;;;;;;;5070541;28;20024;-51
2021/01/26 14:13:24;;;;;;;16.13;9.13;;;;;;;;;;5081804;28;20020;-50
2021/01/26 14:15:51;;;;;;;19.38;11.10;;;;;;;;;;5081380;28;20039;-52
2021/01/26 14:18:17;;;;;;;20.60;11.38;;;;;;;;;;5074850;28;20078;-48
2021/01/26 14:20:43;;;;;;;22.20;12.88;;;;;;;;;;5084955;28;20031;-49
2021/01/26 14:23:09;;;;;;;24.27;13.20;;;;;;;;;;5083575;28;20025;-52
2021/01/26 14:25:35;;;;;;;20.90;11.65;;;;;;;;;;5078875;28;20032;-47
2021/01/26 14:28:01;;;;;;;22.45;11.43;;;;;;;;;;5076269;28;20031;-50
2021/01/26 14:30:27;;;;;;;20.33;11.70;;;;;;;;;;5073511;28;20070;-47
2021/01/26 14:32:53;;;;;;;20.67;11.82;;;;;;;;;;5080354;28;20058;-49